createdAt,value
2022-09-15T00:02:14.206Z,14.39
2022-09-15T00:07:17.273Z,14.38
2022-09-15T00:12:19.887Z,14.35
2022-09-15T00:17:22.794Z,14.32
2022-09-15T00:22:26.391Z,14.31
2022-09-15T00:27:28.972Z,14.33
2022-09-15T00:32:31.899Z,14.33
2022-09-15T00:37:34.489Z,14.28
2022-09-15T00:42:38.228Z,14.20
2022-09-15T00:47:40.912Z,14.14
2022-09-15T00:52:52.990Z,14.10
2022-09-15T00:58:14.514Z,14.09
2022-09-15T01:03:18.274Z,14.09
2022-09-15T01:08:29.810Z,14.10
2022-09-15T01:13:33.120Z,14.09
2022-09-15T01:19:02.324Z,14.07
2022-09-15T01:24:23.427Z,14.04
2022-09-15T01:29:55.251Z,14.01
2022-09-15T01:35:02.843Z,13.96
2022-09-15T01:40:07.093Z,13.91
2022-09-15T01:45:16.765Z,13.87
2022-09-15T01:50:22.575Z,13.84
2022-09-15T01:55:29.712Z,13.80
2022-09-15T02:00:34.500Z,13.78
2022-09-15T02:05:42.817Z,13.79
2022-09-15T02:11:01.289Z,13.80
2022-09-15T02:16:05.117Z,13.81
2022-09-15T02:21:23.991Z,13.81
2022-09-15T02:26:28.946Z,13.82
2022-09-15T02:31:33.320Z,13.83
2022-09-15T02:36:36.393Z,13.82
2022-09-15T02:41:39.719Z,13.77
2022-09-15T02:46:42.700Z,13.73
2022-09-15T02:51:45.314Z,13.70
2022-09-15T02:56:47.887Z,13.71
2022-09-15T03:01:52.084Z,13.70
2022-09-15T03:06:54.786Z,13.67
2022-09-15T03:11:57.442Z,13.63
2022-09-15T03:17:00.392Z,13.61
2022-09-15T03:22:03.382Z,13.60
2022-09-15T03:27:06.161Z,13.57
2022-09-15T03:32:08.665Z,13.56
2022-09-15T03:37:11.862Z,13.54
2022-09-15T03:42:14.767Z,13.50
2022-09-15T03:47:17.514Z,13.49
2022-09-15T03:52:20.023Z,13.50
2022-09-15T03:57:22.545Z,13.50
2022-09-15T04:02:25.197Z,13.49
2022-09-15T04:07:27.841Z,13.47
2022-09-15T04:12:32.704Z,13.45
2022-09-15T04:17:35.765Z,13.37
2022-09-15T04:22:38.509Z,13.29
2022-09-15T04:27:41.209Z,13.17
2022-09-15T04:32:43.738Z,13.03
2022-09-15T04:37:46.482Z,12.90
2022-09-15T04:42:49.036Z,12.79
2022-09-15T04:47:53.483Z,12.71
2022-09-15T04:52:56.124Z,12.70
2022-09-15T04:57:58.740Z,12.76
2022-09-15T05:03:01.323Z,12.92
2022-09-15T05:08:04.259Z,13.12
2022-09-15T05:13:06.943Z,13.26
2022-09-15T05:18:09.481Z,13.39
2022-09-15T05:23:12.234Z,13.50
2022-09-15T05:28:14.854Z,13.64
2022-09-15T05:33:18.048Z,13.79
2022-09-15T05:38:20.743Z,13.96
2022-09-15T05:43:23.271Z,14.11
2022-09-15T05:48:26.179Z,14.28
2022-09-15T05:53:29.252Z,14.40
2022-09-15T05:58:32.472Z,15.36
2022-09-15T06:03:35.985Z,17.17
2022-09-15T06:08:48.225Z,18.72
2022-09-15T06:13:51.723Z,20.10
2022-09-15T06:18:54.361Z,21.31
2022-09-15T06:23:58.919Z,22.47
2022-09-15T06:29:03.010Z,23.74
2022-09-15T06:34:11.843Z,24.22
2022-09-15T06:39:14.412Z,24.49
2022-09-15T06:44:17.570Z,25.61
2022-09-15T06:49:20.871Z,26.62
2022-09-15T06:54:23.492Z,26.41
2022-09-15T06:59:26.259Z,26.63
2022-09-15T07:04:37.154Z,27.59
2022-09-15T07:09:41.352Z,28.50
2022-09-15T07:14:44.397Z,29.17
2022-09-15T07:19:46.973Z,29.66
2022-09-15T07:24:49.550Z,29.60
2022-09-15T07:29:52.390Z,30.05
2022-09-15T07:34:58.254Z,30.46
2022-09-15T07:40:01.553Z,31.29
2022-09-15T07:45:05.256Z,32.09
2022-09-15T07:50:08.592Z,32.95
2022-09-15T07:55:11.415Z,33.28
2022-09-15T08:00:15.577Z,33.92
2022-09-15T08:05:18.407Z,34.44
2022-09-15T08:10:21.467Z,35.03
2022-09-15T08:15:24.621Z,35.62
2022-09-15T08:20:27.271Z,36.11
2022-09-15T08:25:30.586Z,36.23
2022-09-15T08:30:33.120Z,34.81
2022-09-15T08:35:37.045Z,31.00
2022-09-15T08:40:44.054Z,28.92
2022-09-15T08:45:53.569Z,27.67
2022-09-15T08:50:58.788Z,26.58
2022-09-15T08:56:09.319Z,26.00
2022-09-15T09:01:31.369Z,25.21
2022-09-15T09:06:34.063Z,28.77
2022-09-15T09:11:36.608Z,32.04
2022-09-15T09:16:41.961Z,30.89
2022-09-15T09:21:48.285Z,29.22
2022-09-15T09:26:54.556Z,27.22
2022-09-15T09:31:58.630Z,26.80
2022-09-15T09:37:08.798Z,27.78
2022-09-15T09:42:14.827Z,27.61
2022-09-15T09:47:18.174Z,25.92
2022-09-15T09:52:40.963Z,24.13
2022-09-15T09:57:43.866Z,23.04
2022-09-15T10:02:47.007Z,22.09
2022-09-15T10:07:49.667Z,21.13
2022-09-15T10:12:55.981Z,20.69
2022-09-15T10:17:58.578Z,21.09
2022-09-15T10:23:02.991Z,21.81
2022-09-15T10:28:08.412Z,20.97
2022-09-15T10:33:27.605Z,20.07
2022-09-15T10:38:30.094Z,20.01
2022-09-15T10:43:52.938Z,19.82
2022-09-15T10:49:15.988Z,19.61
2022-09-15T10:54:28.412Z,19.41
2022-09-15T10:59:44.394Z,19.80
2022-09-15T11:04:47.004Z,21.90
2022-09-15T11:10:09.832Z,22.16
2022-09-15T11:15:32.264Z,21.28
2022-09-15T11:20:59.139Z,20.40
2022-09-15T11:26:06.531Z,19.89
2022-09-15T11:31:24.554Z,20.22
2022-09-15T11:36:30.777Z,20.67
2022-09-15T11:41:41.975Z,20.69
2022-09-15T11:46:53.745Z,20.63
2022-09-15T11:51:59.074Z,21.08
2022-09-15T11:57:02.218Z,22.05
2022-09-15T12:02:17.350Z,23.77
2022-09-15T12:07:23.970Z,24.37
2022-09-15T12:12:30.635Z,24.82
2022-09-15T12:17:40.421Z,24.74
2022-09-15T12:22:47.033Z,25.53
2022-09-15T12:28:08.394Z,26.57
2022-09-15T12:33:29.574Z,26.57
2022-09-15T12:38:32.167Z,27.57
2022-09-15T12:43:34.893Z,28.35
2022-09-15T12:48:38.096Z,28.69
2022-09-15T12:53:49.754Z,28.86
2022-09-15T12:58:53.305Z,28.31
2022-09-15T13:03:59.355Z,28.33
2022-09-15T13:09:02.309Z,27.99
2022-09-15T13:14:07.622Z,26.76
2022-09-15T13:19:12.610Z,25.17
2022-09-15T13:24:21.644Z,24.45
2022-09-15T13:29:24.644Z,26.55
2022-09-15T13:35:10.036Z,26.92
2022-09-15T13:40:34.520Z,26.89
2022-09-15T13:45:40.279Z,28.43
2022-09-15T13:50:51.553Z,29.01
2022-09-15T13:55:58.441Z,27.75
2022-09-15T14:01:03.411Z,26.68
2022-09-15T14:06:26.436Z,25.36
2022-09-15T14:11:30.854Z,24.21
2022-09-15T14:16:34.987Z,24.83
2022-09-15T14:21:47.768Z,24.35
2022-09-15T14:26:50.466Z,22.77
2022-09-15T14:31:54.223Z,21.53
2022-09-15T14:37:07.664Z,20.41
2022-09-15T14:42:30.711Z,19.55
2022-09-15T14:47:33.625Z,18.91
2022-09-15T14:52:39.303Z,18.58
2022-09-15T14:57:46.400Z,18.41
2022-09-15T15:03:14.748Z,18.26
2022-09-15T15:08:30.299Z,18.16
2022-09-15T15:13:33.305Z,17.93
2022-09-15T15:18:35.904Z,17.67
2022-09-15T15:23:46.874Z,17.50
2022-09-15T15:28:49.776Z,17.40
2022-09-15T15:34:00.390Z,17.30
2022-09-15T15:39:05.278Z,17.22
2022-09-15T15:44:25.895Z,17.13
2022-09-15T15:49:29.813Z,16.88
2022-09-15T15:54:33.662Z,16.65
2022-09-15T15:59:36.192Z,16.51
2022-09-15T16:04:38.804Z,16.37
2022-09-15T16:09:41.400Z,16.24
2022-09-15T16:14:44.100Z,16.12
2022-09-15T16:19:47.363Z,16.01
2022-09-15T16:24:50.116Z,15.88
2022-09-15T16:29:53.153Z,15.77
2022-09-15T16:34:55.726Z,15.67
2022-09-15T16:39:58.280Z,15.60
2022-09-15T16:45:01.958Z,15.54
2022-09-15T16:50:04.859Z,15.49
2022-09-15T16:55:17.372Z,15.43
2022-09-15T17:00:20.000Z,15.33
2022-09-15T17:05:31.153Z,15.18
2022-09-15T17:10:34.637Z,15.00
2022-09-15T17:15:38.755Z,14.88
2022-09-15T17:20:42.531Z,14.81
2022-09-15T17:25:51.784Z,14.77
2022-09-15T17:30:58.837Z,14.76
2022-09-15T17:36:01.560Z,14.75
2022-09-15T17:41:04.409Z,14.71
2022-09-15T17:46:07.964Z,14.62
2022-09-15T17:51:14.304Z,14.52
2022-09-15T17:56:17.049Z,14.37
2022-09-15T18:01:20.585Z,14.19
2022-09-15T18:06:23.141Z,14.00
2022-09-15T18:11:27.263Z,13.83
2022-09-15T18:16:30.246Z,13.66
2022-09-15T18:21:32.855Z,13.51
2022-09-15T18:26:35.776Z,13.35
2022-09-15T18:31:38.464Z,13.20
2022-09-15T18:36:41.250Z,13.08
2022-09-15T18:41:43.846Z,12.97
2022-09-15T18:46:46.462Z,12.88
2022-09-15T18:51:52.356Z,12.79
2022-09-15T18:56:55.131Z,12.68
2022-09-15T19:01:57.748Z,12.57
2022-09-15T19:07:00.531Z,12.46
2022-09-15T19:12:03.916Z,12.37
2022-09-15T19:17:06.581Z,12.31
2022-09-15T19:22:09.697Z,12.22
2022-09-15T19:27:12.275Z,12.14
2022-09-15T19:32:18.169Z,12.05
2022-09-15T19:37:21.951Z,11.98
2022-09-15T19:42:24.520Z,11.94
2022-09-15T19:47:27.145Z,11.90
2022-09-15T19:52:29.742Z,11.83
2022-09-15T19:57:32.521Z,11.75
2022-09-15T20:02:35.169Z,11.71
2022-09-15T20:07:37.840Z,11.67
2022-09-15T20:12:40.591Z,11.64
2022-09-15T20:17:43.235Z,11.58
2022-09-15T20:22:46.411Z,11.54
2022-09-15T20:27:49.595Z,11.49
2022-09-15T20:32:52.192Z,11.43
2022-09-15T20:37:54.808Z,11.37
2022-09-15T20:42:58.069Z,11.32
2022-09-15T20:48:00.660Z,11.29
2022-09-15T20:53:03.265Z,11.25
2022-09-15T20:58:08.112Z,11.21
2022-09-15T21:03:10.711Z,11.18
2022-09-15T21:08:13.549Z,11.17
2022-09-15T21:13:16.307Z,11.14
2022-09-15T21:18:19.732Z,11.09
2022-09-15T21:23:22.452Z,11.08
2022-09-15T21:28:25.190Z,11.07
2022-09-15T21:33:28.852Z,11.04
2022-09-15T21:38:31.554Z,11.00
2022-09-15T21:43:36.202Z,10.97
2022-09-15T21:48:38.899Z,10.93
2022-09-15T21:53:42.627Z,10.89
2022-09-15T21:58:45.242Z,10.82
2022-09-15T22:03:49.460Z,10.76
2022-09-15T22:08:52.053Z,10.72
2022-09-15T22:13:55.876Z,10.72
2022-09-15T22:18:59.970Z,10.72
2022-09-15T22:24:04.655Z,10.73
2022-09-15T22:29:07.275Z,10.84
2022-09-15T22:34:09.950Z,10.96
2022-09-15T22:39:12.890Z,11.07
2022-09-15T22:44:19.814Z,11.19
2022-09-15T22:49:22.656Z,11.33
2022-09-15T22:54:25.202Z,11.45
2022-09-15T22:59:27.911Z,11.52
2022-09-15T23:04:30.656Z,11.54
2022-09-15T23:09:33.351Z,11.52
2022-09-15T23:14:37.075Z,11.49
2022-09-15T23:19:40.269Z,11.48
2022-09-15T23:24:42.883Z,11.47
2022-09-15T23:29:45.583Z,11.40
2022-09-15T23:34:49.014Z,11.27
2022-09-15T23:39:52.565Z,11.14
2022-09-15T23:44:55.218Z,10.99
2022-09-15T23:49:57.820Z,10.88
2022-09-15T23:55:00.345Z,10.84
